sensor_id;sensor_type;location;lat;lon;timestamp;P1;durP1;ratioP1;P2;durP2;ratioP2
3791;SDS011;1911;53.768;11.474;2022-12-18T00:01:03;44.22;;;15.45;;
3791;SDS011;1911;53.768;11.474;2022-12-18T00:03:34;41.40;;;17.60;;
3791;SDS011;1911;53.768;11.474;2022-12-18T00:06:01;52.00;;;17.33;;
3791;SDS011;1911;53.768;11.474;2022-12-18T00:08:27;44.15;;;16.83;;
3791;SDS011;1911;53.768;11.474;2022-12-18T00:10:53;52.08;;;17.00;;
3791;SDS011;1911;53.768;11.474;2022-12-18T00:13:19;39.90;;;19.23;;
3791;SDS011;1911;53.768;11.474;2022-12-18T00:15:45;41.57;;;17.33;;
3791;SDS011;1911;53.768;11.474;2022-12-18T00:18:10;50.57;;;17.97;;
3791;SDS011;1911;53.768;11.474;2022-12-18T00:20:36;43.67;;;18.17;;
3791;SDS011;1911;53.768;11.474;2022-12-18T00:23:03;40.70;;;17.92;;
3791;SDS011;1911;53.768;11.474;2022-12-18T00:25:29;49.70;;;16.67;;
3791;SDS011;1911;53.768;11.474;2022-12-18T00:27:57;43.80;;;17.67;;
3791;SDS011;1911;53.768;11.474;2022-12-18T00:30:22;44.50;;;17.60;;
3791;SDS011;1911;53.768;11.474;2022-12-18T00:32:48;33.07;;;15.07;;
3791;SDS011;1911;53.768;11.474;2022-12-18T00:35:13;41.53;;;16.97;;
3791;SDS011;1911;53.768;11.474;2022-12-18T00:37:39;51.77;;;20.97;;
3791;SDS011;1911;53.768;11.474;2022-12-18T00:40:05;48.93;;;17.00;;
3791;SDS011;1911;53.768;11.474;2022-12-18T00:42:31;36.70;;;14.63;;
3791;SDS011;1911;53.768;11.474;2022-12-18T00:45:15;37.75;;;14.23;;
3791;SDS011;1911;53.768;11.474;2022-12-18T00:47:40;49.00;;;18.37;;
3791;SDS011;1911;53.768;11.474;2022-12-18T00:50:06;48.73;;;17.27;;
3791;SDS011;1911;53.768;11.474;2022-12-18T00:52:32;47.25;;;18.77;;
3791;SDS011;1911;53.768;11.474;2022-12-18T00:54:58;31.73;;;13.50;;
3791;SDS011;1911;53.768;11.474;2022-12-18T00:57:24;35.23;;;13.10;;
3791;SDS011;1911;53.768;11.474;2022-12-18T00:59:49;39.60;;;16.70;;
3791;SDS011;1911;53.768;11.474;2022-12-18T01:02:15;34.97;;;15.90;;
3791;SDS011;1911;53.768;11.474;2022-12-18T01:04:40;43.83;;;15.60;;
3791;SDS011;1911;53.768;11.474;2022-12-18T01:07:06;36.43;;;13.93;;
3791;SDS011;1911;53.768;11.474;2022-12-18T01:09:31;45.37;;;17.63;;
3791;SDS011;1911;53.768;11.474;2022-12-18T01:11:57;36.03;;;14.53;;
3791;SDS011;1911;53.768;11.474;2022-12-18T01:14:22;37.50;;;14.53;;
3791;SDS011;1911;53.768;11.474;2022-12-18T01:16:48;44.90;;;17.30;;
3791;SDS011;1911;53.768;11.474;2022-12-18T01:19:13;59.83;;;17.13;;
3791;SDS011;1911;53.768;11.474;2022-12-18T01:21:39;41.07;;;15.57;;
3791;SDS011;1911;53.768;11.474;2022-12-18T01:24:05;45.47;;;16.83;;
3791;SDS011;1911;53.768;11.474;2022-12-18T01:26:31;40.63;;;15.63;;
3791;SDS011;1911;53.768;11.474;2022-12-18T01:28:56;40.70;;;16.77;;
3791;SDS011;1911;53.768;11.474;2022-12-18T01:31:23;36.03;;;15.13;;
3791;SDS011;1911;53.768;11.474;2022-12-18T01:33:51;43.38;;;15.43;;
3791;SDS011;1911;53.768;11.474;2022-12-18T01:36:18;30.95;;;13.82;;
3791;SDS011;1911;53.768;11.474;2022-12-18T01:38:52;37.20;;;13.80;;
3791;SDS011;1911;53.768;11.474;2022-12-18T01:41:19;46.03;;;16.13;;
3791;SDS011;1911;53.768;11.474;2022-12-18T01:43:53;36.15;;;15.50;;
3791;SDS011;1911;53.768;11.474;2022-12-18T01:46:21;38.83;;;15.70;;
3791;SDS011;1911;53.768;11.474;2022-12-18T01:48:56;29.83;;;13.55;;
3791;SDS011;1911;53.768;11.474;2022-12-18T01:51:24;38.40;;;13.50;;
3791;SDS011;1911;53.768;11.474;2022-12-18T01:53:51;38.75;;;16.92;;
3791;SDS011;1911;53.768;11.474;2022-12-18T01:56:18;28.40;;;13.00;;
3791;SDS011;1911;53.768;11.474;2022-12-18T01:58:47;26.58;;;13.15;;
3791;SDS011;1911;53.768;11.474;2022-12-18T02:01:17;36.25;;;13.60;;
3791;SDS011;1911;53.768;11.474;2022-12-18T02:03:44;39.33;;;15.43;;
3791;SDS011;1911;53.768;11.474;2022-12-18T02:06:13;25.33;;;9.87;;
3791;SDS011;1911;53.768;11.474;2022-12-18T02:08:45;32.58;;;10.98;;
3791;SDS011;1911;53.768;11.474;2022-12-18T02:11:21;37.50;;;14.05;;
3791;SDS011;1911;53.768;11.474;2022-12-18T02:14:00;26.40;;;12.45;;
3791;SDS011;1911;53.768;11.474;2022-12-18T02:16:38;29.70;;;11.98;;
3791;SDS011;1911;53.768;11.474;2022-12-18T02:19:20;32.08;;;12.40;;
3791;SDS011;1911;53.768;11.474;2022-12-18T02:22:19;40.05;;;14.90;;
3791;SDS011;1911;53.768;11.474;2022-12-18T02:25:00;36.88;;;12.32;;
3791;SDS011;1911;53.768;11.474;2022-12-18T02:27:42;44.08;;;14.52;;
3791;SDS011;1911;53.768;11.474;2022-12-18T02:30:11;20.27;;;9.07;;
3791;SDS011;1911;53.768;11.474;2022-12-18T02:32:38;33.85;;;14.77;;
3791;SDS011;1911;53.768;11.474;2022-12-18T02:35:10;37.08;;;14.70;;
3791;SDS011;1911;53.768;11.474;2022-12-18T02:37:42;24.40;;;11.95;;
3791;SDS011;1911;53.768;11.474;2022-12-18T02:40:10;33.92;;;11.50;;
3791;SDS011;1911;53.768;11.474;2022-12-18T02:42:37;24.08;;;10.10;;
3791;SDS011;1911;53.768;11.474;2022-12-18T02:45:03;42.30;;;15.53;;
3791;SDS011;1911;53.768;11.474;2022-12-18T02:47:30;28.38;;;11.27;;
3791;SDS011;1911;53.768;11.474;2022-12-18T02:50:11;25.40;;;10.48;;
3791;SDS011;1911;53.768;11.474;2022-12-18T02:58:40;30.00;;;12.82;;
3791;SDS011;1911;53.768;11.474;2022-12-18T03:04:20;30.80;;;12.30;;
3791;SDS011;1911;53.768;11.474;2022-12-18T03:07:02;18.33;;;9.18;;
3791;SDS011;1911;53.768;11.474;2022-12-18T03:09:34;25.80;;;13.65;;
3791;SDS011;1911;53.768;11.474;2022-12-18T03:12:37;35.28;;;13.38;;
3791;SDS011;1911;53.768;11.474;2022-12-18T03:14:59;36.53;;;12.63;;
3791;SDS011;1911;53.768;11.474;2022-12-18T03:17:35;31.95;;;11.55;;
3791;SDS011;1911;53.768;11.474;2022-12-18T03:20:06;34.80;;;11.75;;
3791;SDS011;1911;53.768;11.474;2022-12-18T03:22:37;26.42;;;12.18;;
3791;SDS011;1911;53.768;11.474;2022-12-18T03:25:06;30.00;;;11.40;;
3791;SDS011;1911;53.768;11.474;2022-12-18T03:27:35;31.73;;;11.60;;
3791;SDS011;1911;53.768;11.474;2022-12-18T03:30:04;30.55;;;14.30;;
3791;SDS011;1911;53.768;11.474;2022-12-18T03:32:34;34.38;;;14.27;;
3791;SDS011;1911;53.768;11.474;2022-12-18T03:35:25;25.15;;;12.73;;
3791;SDS011;1911;53.768;11.474;2022-12-18T03:37:57;39.25;;;13.13;;
3791;SDS011;1911;53.768;11.474;2022-12-18T03:40:24;25.83;;;11.10;;
3791;SDS011;1911;53.768;11.474;2022-12-18T03:42:59;24.17;;;7.93;;
3791;SDS011;1911;53.768;11.474;2022-12-18T03:45:37;26.67;;;10.85;;
3791;SDS011;1911;53.768;11.474;2022-12-18T03:48:08;30.95;;;11.02;;
3791;SDS011;1911;53.768;11.474;2022-12-18T03:50:48;30.15;;;13.55;;
3791;SDS011;1911;53.768;11.474;2022-12-18T03:53:23;33.28;;;11.57;;
3791;SDS011;1911;53.768;11.474;2022-12-18T03:56:03;34.25;;;13.02;;
3791;SDS011;1911;53.768;11.474;2022-12-18T03:58:30;25.45;;;10.85;;
3791;SDS011;1911;53.768;11.474;2022-12-18T04:01:00;30.38;;;12.68;;
3791;SDS011;1911;53.768;11.474;2022-12-18T04:03:28;37.00;;;12.50;;
3791;SDS011;1911;53.768;11.474;2022-12-18T04:05:56;26.05;;;10.60;;
3791;SDS011;1911;53.768;11.474;2022-12-18T04:08:23;31.48;;;12.25;;
3791;SDS011;1911;53.768;11.474;2022-12-18T04:10:50;22.95;;;10.70;;
3791;SDS011;1911;53.768;11.474;2022-12-18T04:13:29;19.77;;;8.57;;
3791;SDS011;1911;53.768;11.474;2022-12-18T04:15:57;27.52;;;10.25;;
3791;SDS011;1911;53.768;11.474;2022-12-18T04:18:23;39.27;;;11.17;;
3791;SDS011;1911;53.768;11.474;2022-12-18T04:20:49;29.67;;;10.27;;
3791;SDS011;1911;53.768;11.474;2022-12-18T04:23:14;23.33;;;9.67;;
3791;SDS011;1911;53.768;11.474;2022-12-18T04:25:40;21.40;;;7.57;;
3791;SDS011;1911;53.768;11.474;2022-12-18T04:28:05;27.40;;;10.63;;
3791;SDS011;1911;53.768;11.474;2022-12-18T04:30:31;26.00;;;11.67;;
3791;SDS011;1911;53.768;11.474;2022-12-18T04:35:59;15.60;;;8.63;;
3791;SDS011;1911;53.768;11.474;2022-12-18T04:38:25;25.60;;;11.07;;
3791;SDS011;1911;53.768;11.474;2022-12-18T04:40:51;19.97;;;8.87;;
3791;SDS011;1911;53.768;11.474;2022-12-18T04:43:16;29.23;;;9.43;;
3791;SDS011;1911;53.768;11.474;2022-12-18T04:45:42;25.47;;;11.70;;
3791;SDS011;1911;53.768;11.474;2022-12-18T04:48:07;30.30;;;10.20;;
3791;SDS011;1911;53.768;11.474;2022-12-18T04:50:33;28.27;;;12.30;;
3791;SDS011;1911;53.768;11.474;2022-12-18T04:52:59;32.70;;;11.00;;
3791;SDS011;1911;53.768;11.474;2022-12-18T04:55:24;27.33;;;11.07;;
3791;SDS011;1911;53.768;11.474;2022-12-18T04:57:50;26.55;;;11.60;;
3791;SDS011;1911;53.768;11.474;2022-12-18T05:00:16;27.00;;;9.97;;
3791;SDS011;1911;53.768;11.474;2022-12-18T05:02:42;22.27;;;10.50;;
3791;SDS011;1911;53.768;11.474;2022-12-18T05:05:07;34.20;;;12.47;;
3791;SDS011;1911;53.768;11.474;2022-12-18T05:07:34;35.15;;;12.77;;
3791;SDS011;1911;53.768;11.474;2022-12-18T05:09:59;33.10;;;12.40;;
3791;SDS011;1911;53.768;11.474;2022-12-18T05:12:25;29.47;;;10.50;;
3791;SDS011;1911;53.768;11.474;2022-12-18T05:14:50;24.23;;;9.17;;
3791;SDS011;1911;53.768;11.474;2022-12-18T05:17:16;29.43;;;11.10;;
3791;SDS011;1911;53.768;11.474;2022-12-18T05:19:41;23.03;;;11.93;;
3791;SDS011;1911;53.768;11.474;2022-12-18T05:22:07;27.90;;;10.17;;
3791;SDS011;1911;53.768;11.474;2022-12-18T05:24:33;26.90;;;10.80;;
3791;SDS011;1911;53.768;11.474;2022-12-18T05:26:59;35.27;;;11.70;;
3791;SDS011;1911;53.768;11.474;2022-12-18T05:29:25;28.27;;;10.57;;
3791;SDS011;1911;53.768;11.474;2022-12-18T05:31:50;30.73;;;11.40;;
3791;SDS011;1911;53.768;11.474;2022-12-18T05:34:16;29.33;;;11.87;;
3791;SDS011;1911;53.768;11.474;2022-12-18T05:36:42;24.43;;;9.07;;
3791;SDS011;1911;53.768;11.474;2022-12-18T05:39:08;32.60;;;12.07;;
3791;SDS011;1911;53.768;11.474;2022-12-18T05:41:34;19.38;;;10.15;;
3791;SDS011;1911;53.768;11.474;2022-12-18T05:44:00;23.40;;;12.17;;
3791;SDS011;1911;53.768;11.474;2022-12-18T05:46:25;30.17;;;11.40;;
3791;SDS011;1911;53.768;11.474;2022-12-18T05:48:51;28.10;;;11.47;;
3791;SDS011;1911;53.768;11.474;2022-12-18T05:51:18;28.33;;;10.50;;
3791;SDS011;1911;53.768;11.474;2022-12-18T05:53:45;22.38;;;8.55;;
3791;SDS011;1911;53.768;11.474;2022-12-18T05:56:16;31.17;;;10.25;;
3791;SDS011;1911;53.768;11.474;2022-12-18T05:58:43;22.05;;;9.48;;
3791;SDS011;1911;53.768;11.474;2022-12-18T06:01:10;18.47;;;8.00;;
3791;SDS011;1911;53.768;11.474;2022-12-18T06:03:40;26.58;;;11.48;;
3791;SDS011;1911;53.768;11.474;2022-12-18T06:08:46;21.27;;;8.52;;
3791;SDS011;1911;53.768;11.474;2022-12-18T06:11:11;26.73;;;10.03;;
3791;SDS011;1911;53.768;11.474;2022-12-18T06:13:38;25.05;;;8.82;;
3791;SDS011;1911;53.768;11.474;2022-12-18T06:16:04;20.50;;;10.75;;
3791;SDS011;1911;53.768;11.474;2022-12-18T06:18:30;24.30;;;11.27;;
3791;SDS011;1911;53.768;11.474;2022-12-18T06:20:56;20.52;;;8.73;;
3791;SDS011;1911;53.768;11.474;2022-12-18T06:23:23;20.27;;;12.02;;
3791;SDS011;1911;53.768;11.474;2022-12-18T06:25:49;34.20;;;10.83;;
3791;SDS011;1911;53.768;11.474;2022-12-18T06:28:15;30.67;;;11.93;;
3791;SDS011;1911;53.768;11.474;2022-12-18T06:30:44;20.83;;;8.50;;
3791;SDS011;1911;53.768;11.474;2022-12-18T06:33:10;23.00;;;11.00;;
3791;SDS011;1911;53.768;11.474;2022-12-18T06:35:36;25.43;;;10.83;;
3791;SDS011;1911;53.768;11.474;2022-12-18T06:38:02;16.60;;;8.37;;
3791;SDS011;1911;53.768;11.474;2022-12-18T06:40:28;35.33;;;12.23;;
3791;SDS011;1911;53.768;11.474;2022-12-18T06:42:54;30.13;;;11.00;;
3791;SDS011;1911;53.768;11.474;2022-12-18T06:45:19;27.47;;;11.53;;
3791;SDS011;1911;53.768;11.474;2022-12-18T06:47:45;31.17;;;11.60;;
3791;SDS011;1911;53.768;11.474;2022-12-18T06:50:11;30.27;;;9.90;;
3791;SDS011;1911;53.768;11.474;2022-12-18T06:52:37;24.60;;;10.57;;
3791;SDS011;1911;53.768;11.474;2022-12-18T06:55:05;25.98;;;8.57;;
3791;SDS011;1911;53.768;11.474;2022-12-18T06:57:32;19.10;;;8.52;;
3791;SDS011;1911;53.768;11.474;2022-12-18T06:59:58;34.93;;;12.10;;
3791;SDS011;1911;53.768;11.474;2022-12-18T07:02:24;31.90;;;10.90;;
3791;SDS011;1911;53.768;11.474;2022-12-18T07:04:49;26.27;;;11.47;;
3791;SDS011;1911;53.768;11.474;2022-12-18T07:07:15;27.17;;;11.97;;
3791;SDS011;1911;53.768;11.474;2022-12-18T07:09:40;30.60;;;10.33;;
3791;SDS011;1911;53.768;11.474;2022-12-18T07:12:06;25.17;;;8.20;;
3791;SDS011;1911;53.768;11.474;2022-12-18T07:14:32;27.27;;;9.93;;
3791;SDS011;1911;53.768;11.474;2022-12-18T07:16:58;20.63;;;8.50;;
3791;SDS011;1911;53.768;11.474;2022-12-18T07:19:24;31.07;;;10.97;;
3791;SDS011;1911;53.768;11.474;2022-12-18T07:21:50;27.43;;;9.97;;
3791;SDS011;1911;53.768;11.474;2022-12-18T07:24:16;30.23;;;9.93;;
3791;SDS011;1911;53.768;11.474;2022-12-18T07:26:42;24.97;;;9.80;;
3791;SDS011;1911;53.768;11.474;2022-12-18T07:29:07;31.57;;;10.10;;
3791;SDS011;1911;53.768;11.474;2022-12-18T07:31:33;29.57;;;11.93;;
3791;SDS011;1911;53.768;11.474;2022-12-18T07:33:58;28.67;;;10.93;;
3791;SDS011;1911;53.768;11.474;2022-12-18T07:36:24;26.90;;;8.53;;
3791;SDS011;1911;53.768;11.474;2022-12-18T07:38:50;21.13;;;7.60;;
3791;SDS011;1911;53.768;11.474;2022-12-18T07:41:18;27.58;;;11.15;;
3791;SDS011;1911;53.768;11.474;2022-12-18T07:43:44;19.42;;;9.27;;
3791;SDS011;1911;53.768;11.474;2022-12-18T07:46:10;23.20;;;6.57;;
3791;SDS011;1911;53.768;11.474;2022-12-18T07:48:39;26.65;;;10.48;;
3791;SDS011;1911;53.768;11.474;2022-12-18T07:51:06;24.98;;;10.70;;
3791;SDS011;1911;53.768;11.474;2022-12-18T07:53:32;24.65;;;9.85;;
3791;SDS011;1911;53.768;11.474;2022-12-18T07:55:59;23.85;;;9.98;;
3791;SDS011;1911;53.768;11.474;2022-12-18T07:58:27;27.05;;;9.77;;
3791;SDS011;1911;53.768;11.474;2022-12-18T08:01:08;21.55;;;9.15;;
3791;SDS011;1911;53.768;11.474;2022-12-18T08:03:35;29.63;;;10.18;;
3791;SDS011;1911;53.768;11.474;2022-12-18T08:06:02;32.03;;;10.50;;
3791;SDS011;1911;53.768;11.474;2022-12-18T08:08:29;34.08;;;11.38;;
3791;SDS011;1911;53.768;11.474;2022-12-18T08:10:54;27.73;;;9.03;;
3791;SDS011;1911;53.768;11.474;2022-12-18T08:13:21;26.45;;;10.32;;
3791;SDS011;1911;53.768;11.474;2022-12-18T08:15:54;28.53;;;11.50;;
3791;SDS011;1911;53.768;11.474;2022-12-18T08:18:24;24.63;;;11.25;;
3791;SDS011;1911;53.768;11.474;2022-12-18T08:20:50;20.50;;;11.07;;
3791;SDS011;1911;53.768;11.474;2022-12-18T08:23:16;23.20;;;10.27;;
3791;SDS011;1911;53.768;11.474;2022-12-18T08:25:41;19.00;;;10.27;;
3791;SDS011;1911;53.768;11.474;2022-12-18T08:28:07;25.67;;;10.47;;
3791;SDS011;1911;53.768;11.474;2022-12-18T08:30:32;28.67;;;11.17;;
3791;SDS011;1911;53.768;11.474;2022-12-18T08:32:58;27.70;;;12.03;;
3791;SDS011;1911;53.768;11.474;2022-12-18T08:35:23;30.57;;;10.87;;
3791;SDS011;1911;53.768;11.474;2022-12-18T08:37:49;22.53;;;9.53;;
3791;SDS011;1911;53.768;11.474;2022-12-18T08:40:15;24.90;;;10.10;;
3791;SDS011;1911;53.768;11.474;2022-12-18T08:42:40;32.80;;;11.27;;
3791;SDS011;1911;53.768;11.474;2022-12-18T08:45:24;28.65;;;9.98;;
3791;SDS011;1911;53.768;11.474;2022-12-18T08:47:51;34.70;;;11.77;;
3791;SDS011;1911;53.768;11.474;2022-12-18T08:50:16;29.67;;;10.00;;
3791;SDS011;1911;53.768;11.474;2022-12-18T08:52:42;23.83;;;10.23;;
3791;SDS011;1911;53.768;11.474;2022-12-18T08:55:08;30.50;;;12.43;;
3791;SDS011;1911;53.768;11.474;2022-12-18T08:57:34;27.63;;;10.10;;
3791;SDS011;1911;53.768;11.474;2022-12-18T09:00:00;30.80;;;10.60;;
3791;SDS011;1911;53.768;11.474;2022-12-18T09:05:16;29.67;;;11.27;;
3791;SDS011;1911;53.768;11.474;2022-12-18T09:07:41;28.73;;;10.77;;
3791;SDS011;1911;53.768;11.474;2022-12-18T09:10:07;25.37;;;9.47;;
3791;SDS011;1911;53.768;11.474;2022-12-18T09:12:33;15.87;;;9.47;;
3791;SDS011;1911;53.768;11.474;2022-12-18T09:14:58;22.60;;;11.10;;
3791;SDS011;1911;53.768;11.474;2022-12-18T09:17:24;31.37;;;12.27;;
3791;SDS011;1911;53.768;11.474;2022-12-18T09:19:49;31.17;;;11.70;;
3791;SDS011;1911;53.768;11.474;2022-12-18T09:22:15;19.48;;;7.95;;
3791;SDS011;1911;53.768;11.474;2022-12-18T09:24:41;28.00;;;11.07;;
3791;SDS011;1911;53.768;11.474;2022-12-18T09:27:06;27.80;;;10.50;;
3791;SDS011;1911;53.768;11.474;2022-12-18T09:29:32;16.83;;;8.30;;
3791;SDS011;1911;53.768;11.474;2022-12-18T09:31:58;26.17;;;10.77;;
3791;SDS011;1911;53.768;11.474;2022-12-18T09:34:23;19.80;;;9.00;;
3791;SDS011;1911;53.768;11.474;2022-12-18T09:36:49;16.80;;;8.40;;
3791;SDS011;1911;53.768;11.474;2022-12-18T09:39:15;29.52;;;10.32;;
3791;SDS011;1911;53.768;11.474;2022-12-18T09:47:04;24.83;;;9.85;;
3791;SDS011;1911;53.768;11.474;2022-12-18T09:49:44;21.02;;;9.90;;
3791;SDS011;1911;53.768;11.474;2022-12-18T09:52:12;29.27;;;10.35;;
3791;SDS011;1911;53.768;11.474;2022-12-18T09:54:48;23.80;;;10.02;;
3791;SDS011;1911;53.768;11.474;2022-12-18T09:57:20;22.02;;;9.35;;
3791;SDS011;1911;53.768;11.474;2022-12-18T09:59:50;23.60;;;9.43;;
3791;SDS011;1911;53.768;11.474;2022-12-18T10:02:22;20.73;;;8.65;;
3791;SDS011;1911;53.768;11.474;2022-12-18T10:04:55;26.67;;;10.48;;
3791;SDS011;1911;53.768;11.474;2022-12-18T10:07:39;20.23;;;10.27;;
3791;SDS011;1911;53.768;11.474;2022-12-18T10:15:39;18.80;;;8.30;;
3791;SDS011;1911;53.768;11.474;2022-12-18T10:18:19;28.75;;;11.35;;
3791;SDS011;1911;53.768;11.474;2022-12-18T10:21:00;20.20;;;8.68;;
3791;SDS011;1911;53.768;11.474;2022-12-18T10:26:14;18.02;;;8.55;;
3791;SDS011;1911;53.768;11.474;2022-12-18T10:28:40;37.90;;;13.53;;
3791;SDS011;1911;53.768;11.474;2022-12-18T10:31:16;26.38;;;9.85;;
3791;SDS011;1911;53.768;11.474;2022-12-18T10:33:44;25.63;;;10.93;;
3791;SDS011;1911;53.768;11.474;2022-12-18T10:36:09;30.30;;;11.77;;
3791;SDS011;1911;53.768;11.474;2022-12-18T10:38:35;21.23;;;9.33;;
3791;SDS011;1911;53.768;11.474;2022-12-18T10:41:02;36.87;;;11.00;;
3791;SDS011;1911;53.768;11.474;2022-12-18T10:44:12;33.55;;;12.85;;
3791;SDS011;1911;53.768;11.474;2022-12-18T10:46:42;30.23;;;12.15;;
3791;SDS011;1911;53.768;11.474;2022-12-18T10:49:20;29.80;;;12.45;;
3791;SDS011;1911;53.768;11.474;2022-12-18T10:51:48;26.17;;;9.85;;
3791;SDS011;1911;53.768;11.474;2022-12-18T10:54:17;25.30;;;11.35;;
3791;SDS011;1911;53.768;11.474;2022-12-18T10:56:46;33.53;;;12.40;;
3791;SDS011;1911;53.768;11.474;2022-12-18T10:59:13;24.37;;;10.30;;
3791;SDS011;1911;53.768;11.474;2022-12-18T11:01:51;33.65;;;10.32;;
3791;SDS011;1911;53.768;11.474;2022-12-18T11:04:29;34.33;;;12.48;;
3791;SDS011;1911;53.768;11.474;2022-12-18T11:09:32;26.70;;;9.93;;
3791;SDS011;1911;53.768;11.474;2022-12-18T11:12:00;25.95;;;11.88;;
3791;SDS011;1911;53.768;11.474;2022-12-18T11:16:59;29.58;;;13.55;;
3791;SDS011;1911;53.768;11.474;2022-12-18T11:19:38;26.45;;;9.07;;
3791;SDS011;1911;53.768;11.474;2022-12-18T11:22:23;25.92;;;11.88;;
3791;SDS011;1911;53.768;11.474;2022-12-18T11:27:40;29.25;;;11.32;;
3791;SDS011;1911;53.768;11.474;2022-12-18T11:33:10;13.90;;;7.70;;
3791;SDS011;1911;53.768;11.474;2022-12-18T11:35:53;27.10;;;10.60;;
3791;SDS011;1911;53.768;11.474;2022-12-18T11:38:24;29.95;;;10.20;;
3791;SDS011;1911;53.768;11.474;2022-12-18T11:40:58;26.05;;;10.73;;
3791;SDS011;1911;53.768;11.474;2022-12-18T11:43:41;24.25;;;8.88;;
3791;SDS011;1911;53.768;11.474;2022-12-18T11:46:15;24.60;;;11.70;;
3791;SDS011;1911;53.768;11.474;2022-12-18T11:48:56;19.70;;;8.35;;
3791;SDS011;1911;53.768;11.474;2022-12-18T11:51:31;20.50;;;7.70;;
3791;SDS011;1911;53.768;11.474;2022-12-18T11:54:00;25.85;;;10.30;;
3791;SDS011;1911;53.768;11.474;2022-12-18T11:56:35;38.35;;;11.35;;
3791;SDS011;1911;53.768;11.474;2022-12-18T11:59:09;25.75;;;10.93;;
3791;SDS011;1911;53.768;11.474;2022-12-18T12:01:59;27.95;;;8.75;;
3791;SDS011;1911;53.768;11.474;2022-12-18T12:09:38;23.20;;;9.07;;
3791;SDS011;1911;53.768;11.474;2022-12-18T12:29:18;23.45;;;10.98;;
3791;SDS011;1911;53.768;11.474;2022-12-18T12:34:25;29.98;;;10.45;;
3791;SDS011;1911;53.768;11.474;2022-12-18T12:39:40;28.63;;;11.65;;
3791;SDS011;1911;53.768;11.474;2022-12-18T12:42:20;27.33;;;10.02;;
3791;SDS011;1911;53.768;11.474;2022-12-18T12:45:16;23.50;;;9.40;;
3791;SDS011;1911;53.768;11.474;2022-12-18T12:47:46;26.77;;;10.82;;
3791;SDS011;1911;53.768;11.474;2022-12-18T12:50:16;22.10;;;10.20;;
3791;SDS011;1911;53.768;11.474;2022-12-18T12:52:44;16.80;;;7.10;;
3791;SDS011;1911;53.768;11.474;2022-12-18T12:55:14;28.63;;;12.30;;
3791;SDS011;1911;53.768;11.474;2022-12-18T12:57:59;25.30;;;10.88;;
3791;SDS011;1911;53.768;11.474;2022-12-18T13:00:44;29.23;;;9.40;;
3791;SDS011;1911;53.768;11.474;2022-12-18T13:03:27;26.38;;;9.10;;
3791;SDS011;1911;53.768;11.474;2022-12-18T13:05:59;29.73;;;12.10;;
3791;SDS011;1911;53.768;11.474;2022-12-18T13:08:30;25.90;;;11.85;;
3791;SDS011;1911;53.768;11.474;2022-12-18T13:11:28;31.42;;;12.00;;
3791;SDS011;1911;53.768;11.474;2022-12-18T13:19:47;32.65;;;13.20;;
3791;SDS011;1911;53.768;11.474;2022-12-18T13:22:46;28.58;;;12.27;;
3791;SDS011;1911;53.768;11.474;2022-12-18T13:28:14;27.67;;;13.90;;
3791;SDS011;1911;53.768;11.474;2022-12-18T13:45:49;24.75;;;11.45;;
3791;SDS011;1911;53.768;11.474;2022-12-18T13:48:26;38.45;;;13.13;;
3791;SDS011;1911;53.768;11.474;2022-12-18T13:50:57;30.75;;;12.52;;
3791;SDS011;1911;53.768;11.474;2022-12-18T13:54:17;36.13;;;10.75;;
3791;SDS011;1911;53.768;11.474;2022-12-18T13:56:24;27.63;;;10.55;;
3791;SDS011;1911;53.768;11.474;2022-12-18T14:01:45;28.05;;;13.13;;
3791;SDS011;1911;53.768;11.474;2022-12-18T14:04:29;35.30;;;13.55;;
3791;SDS011;1911;53.768;11.474;2022-12-18T14:07:19;29.35;;;12.13;;
3791;SDS011;1911;53.768;11.474;2022-12-18T14:10:00;31.67;;;11.57;;
3791;SDS011;1911;53.768;11.474;2022-12-18T14:12:28;22.05;;;9.52;;
3791;SDS011;1911;53.768;11.474;2022-12-18T14:17:55;22.75;;;10.55;;
3791;SDS011;1911;53.768;11.474;2022-12-18T14:20:24;27.33;;;11.30;;
3791;SDS011;1911;53.768;11.474;2022-12-18T14:22:54;22.38;;;11.48;;
3791;SDS011;1911;53.768;11.474;2022-12-18T14:25:31;33.90;;;11.60;;
3791;SDS011;1911;53.768;11.474;2022-12-18T14:30:41;29.77;;;14.10;;
3791;SDS011;1911;53.768;11.474;2022-12-18T14:36:55;25.70;;;11.80;;
3791;SDS011;1911;53.768;11.474;2022-12-18T14:39:39;33.22;;;10.50;;
3791;SDS011;1911;53.768;11.474;2022-12-18T14:49:35;26.02;;;11.55;;
3791;SDS011;1911;53.768;11.474;2022-12-18T14:54:36;26.60;;;10.88;;
3791;SDS011;1911;53.768;11.474;2022-12-18T15:00:04;30.42;;;11.52;;
3791;SDS011;1911;53.768;11.474;2022-12-18T15:02:34;22.88;;;9.55;;
3791;SDS011;1911;53.768;11.474;2022-12-18T15:05:01;26.00;;;9.30;;
3791;SDS011;1911;53.768;11.474;2022-12-18T15:07:51;27.95;;;11.45;;
3791;SDS011;1911;53.768;11.474;2022-12-18T15:11:00;26.08;;;11.05;;
3791;SDS011;1911;53.768;11.474;2022-12-18T15:13:59;26.67;;;10.95;;
3791;SDS011;1911;53.768;11.474;2022-12-18T15:17:33;22.33;;;9.63;;
3791;SDS011;1911;53.768;11.474;2022-12-18T15:20:31;22.98;;;10.43;;
3791;SDS011;1911;53.768;11.474;2022-12-18T15:26:42;19.52;;;8.63;;
3791;SDS011;1911;53.768;11.474;2022-12-18T15:36:28;25.10;;;11.35;;
3791;SDS011;1911;53.768;11.474;2022-12-18T15:39:40;20.42;;;11.63;;
3791;SDS011;1911;53.768;11.474;2022-12-18T15:45:30;33.00;;;11.27;;
3791;SDS011;1911;53.768;11.474;2022-12-18T15:47:56;37.17;;;11.70;;
3791;SDS011;1911;53.768;11.474;2022-12-18T15:50:22;22.93;;;9.00;;
3791;SDS011;1911;53.768;11.474;2022-12-18T15:52:49;21.40;;;9.53;;
3791;SDS011;1911;53.768;11.474;2022-12-18T15:55:18;27.35;;;11.80;;
3791;SDS011;1911;53.768;11.474;2022-12-18T15:58:07;27.50;;;12.35;;
3791;SDS011;1911;53.768;11.474;2022-12-18T16:00:34;30.90;;;10.52;;
3791;SDS011;1911;53.768;11.474;2022-12-18T16:03:03;28.15;;;13.13;;
3791;SDS011;1911;53.768;11.474;2022-12-18T16:05:29;25.90;;;10.43;;
3791;SDS011;1911;53.768;11.474;2022-12-18T16:07:55;20.00;;;8.75;;
3791;SDS011;1911;53.768;11.474;2022-12-18T16:10:20;26.37;;;10.20;;
3791;SDS011;1911;53.768;11.474;2022-12-18T16:12:46;16.67;;;7.57;;
3791;SDS011;1911;53.768;11.474;2022-12-18T16:15:15;29.47;;;12.37;;
3791;SDS011;1911;53.768;11.474;2022-12-18T16:17:42;31.67;;;14.60;;
3791;SDS011;1911;53.768;11.474;2022-12-18T16:20:18;30.38;;;11.82;;
3791;SDS011;1911;53.768;11.474;2022-12-18T16:22:46;25.08;;;11.00;;
3791;SDS011;1911;53.768;11.474;2022-12-18T16:25:19;26.67;;;8.50;;
3791;SDS011;1911;53.768;11.474;2022-12-18T16:27:47;34.50;;;11.90;;
3791;SDS011;1911;53.768;11.474;2022-12-18T16:30:17;30.83;;;11.93;;
3791;SDS011;1911;53.768;11.474;2022-12-18T16:32:45;26.60;;;11.55;;
3791;SDS011;1911;53.768;11.474;2022-12-18T16:35:13;31.55;;;14.98;;
3791;SDS011;1911;53.768;11.474;2022-12-18T16:37:41;35.35;;;12.10;;
3791;SDS011;1911;53.768;11.474;2022-12-18T16:40:12;30.13;;;12.38;;
3791;SDS011;1911;53.768;11.474;2022-12-18T16:42:41;18.73;;;9.52;;
3791;SDS011;1911;53.768;11.474;2022-12-18T16:45:08;23.90;;;10.93;;
3791;SDS011;1911;53.768;11.474;2022-12-18T16:47:35;25.60;;;12.95;;
3791;SDS011;1911;53.768;11.474;2022-12-18T16:50:01;33.83;;;11.83;;
3791;SDS011;1911;53.768;11.474;2022-12-18T16:52:29;32.63;;;13.05;;
3791;SDS011;1911;53.768;11.474;2022-12-18T16:55:03;30.83;;;12.13;;
3791;SDS011;1911;53.768;11.474;2022-12-18T16:57:28;27.90;;;13.03;;
3791;SDS011;1911;53.768;11.474;2022-12-18T16:59:54;29.73;;;9.07;;
3791;SDS011;1911;53.768;11.474;2022-12-18T17:02:24;26.30;;;9.30;;
3791;SDS011;1911;53.768;11.474;2022-12-18T17:04:53;27.00;;;11.27;;
3791;SDS011;1911;53.768;11.474;2022-12-18T17:07:20;26.80;;;13.13;;
3791;SDS011;1911;53.768;11.474;2022-12-18T17:09:46;34.90;;;14.20;;